createdAt,value
2023-05-10T00:01:33.824Z,2.10
2023-05-10T00:04:36.267Z,1.70
2023-05-10T00:07:41.832Z,2.00
2023-05-10T00:10:44.166Z,1.85
2023-05-10T00:13:46.638Z,2.25
2023-05-10T00:16:49.209Z,1.55
2023-05-10T00:19:52.780Z,1.35
2023-05-10T00:22:55.029Z,1.60
2023-05-10T00:25:57.416Z,1.85
2023-05-10T00:28:59.768Z,1.80
2023-05-10T00:32:02.120Z,2.03
2023-05-10T00:35:04.810Z,1.85
2023-05-10T00:38:07.897Z,2.40
2023-05-10T00:41:10.162Z,2.05
2023-05-10T00:44:14.757Z,2.72
2023-05-10T00:47:18.048Z,2.17
2023-05-10T00:50:20.454Z,2.22
2023-05-10T00:53:23.017Z,2.10
2023-05-10T00:56:26.604Z,2.40
2023-05-10T00:59:29.830Z,2.25
2023-05-10T01:02:32.172Z,2.75
2023-05-10T01:05:34.455Z,2.38
2023-05-10T01:08:37.577Z,2.37
2023-05-10T01:11:41.174Z,2.55
2023-05-10T01:14:44.151Z,2.47
2023-05-10T01:17:48.492Z,2.80
2023-05-10T01:21:05.746Z,2.60
2023-05-10T01:24:23.210Z,2.30
2023-05-10T01:28:02.747Z,2.92
2023-05-10T01:31:19.463Z,2.88
2023-05-10T01:34:26.667Z,2.97
2023-05-10T01:37:38.536Z,3.00
2023-05-10T01:41:10.086Z,2.70
2023-05-10T01:44:15.393Z,3.28
2023-05-10T01:47:36.045Z,3.28
2023-05-10T01:50:44.842Z,3.05
2023-05-10T01:53:49.829Z,2.88
2023-05-10T01:57:06.645Z,3.13
2023-05-10T02:00:10.581Z,2.70
2023-05-10T02:03:21.686Z,2.88
2023-05-10T02:06:26.234Z,2.50
2023-05-10T02:09:31.830Z,3.05
2023-05-10T02:12:39.150Z,2.70
2023-05-10T02:15:42.686Z,2.22
2023-05-10T02:18:45.839Z,2.55
2023-05-10T02:21:48.941Z,2.30
2023-05-10T02:24:52.083Z,3.00
2023-05-10T02:27:57.879Z,3.53
2023-05-10T02:31:00.844Z,3.42
2023-05-10T02:34:05.158Z,3.63
2023-05-10T02:37:08.146Z,3.20
2023-05-10T02:40:12.614Z,3.80
2023-05-10T02:43:19.553Z,2.87
2023-05-10T02:46:22.037Z,3.25
2023-05-10T02:49:24.396Z,3.28
2023-05-10T02:52:37.557Z,2.83
2023-05-10T02:55:43.134Z,2.90
2023-05-10T02:58:45.407Z,2.80
2023-05-10T03:01:47.976Z,2.70
2023-05-10T03:04:50.665Z,2.88
2023-05-10T03:07:53.676Z,2.20
2023-05-10T03:11:28.030Z,3.10
2023-05-10T03:14:42.512Z,1.80
2023-05-10T03:17:44.727Z,1.98
2023-05-10T03:20:56.595Z,2.83
2023-05-10T03:24:06.446Z,3.65
2023-05-10T03:27:09.668Z,3.17
2023-05-10T03:30:13.715Z,2.13
2023-05-10T03:33:16.289Z,1.75
2023-05-10T03:36:21.563Z,3.40
2023-05-10T03:39:24.146Z,2.80
2023-05-10T03:42:30.550Z,3.00
2023-05-10T03:45:32.942Z,3.00
2023-05-10T03:48:35.947Z,2.50
2023-05-10T03:51:38.257Z,2.20
2023-05-10T03:54:40.594Z,3.00
2023-05-10T03:57:43.456Z,3.10
2023-05-10T04:00:46.509Z,3.10
2023-05-10T04:03:50.318Z,3.80
2023-05-10T04:06:52.685Z,3.55
2023-05-10T04:09:55.455Z,2.75
2023-05-10T04:12:58.578Z,3.47
2023-05-10T04:16:01.207Z,3.50
2023-05-10T04:19:03.812Z,3.63
2023-05-10T04:22:06.279Z,4.57
2023-05-10T04:25:09.182Z,3.53
2023-05-10T04:28:11.391Z,3.90
2023-05-10T04:31:13.873Z,3.33
2023-05-10T04:34:16.171Z,2.40
2023-05-10T04:37:19.186Z,3.33
2023-05-10T04:40:21.772Z,3.42
2023-05-10T04:43:24.048Z,3.70
2023-05-10T04:46:26.356Z,4.20
2023-05-10T04:49:29.109Z,2.13
2023-05-10T04:52:31.634Z,3.80
2023-05-10T04:55:33.945Z,3.88
2023-05-10T04:58:36.296Z,4.53
2023-05-10T05:01:38.649Z,4.00
2023-05-10T05:04:40.942Z,4.10
2023-05-10T05:07:43.264Z,4.05
2023-05-10T05:10:45.586Z,4.43
2023-05-10T05:13:48.083Z,3.90
2023-05-10T05:16:50.403Z,3.23
2023-05-10T05:19:52.739Z,4.70
2023-05-10T05:22:54.994Z,4.28
2023-05-10T05:25:57.400Z,6.30
2023-05-10T05:28:59.727Z,4.13
2023-05-10T05:32:02.452Z,3.80
2023-05-10T05:35:05.609Z,4.57
2023-05-10T05:38:07.933Z,4.03
2023-05-10T05:41:10.297Z,4.63
2023-05-10T05:44:12.618Z,3.00
2023-05-10T05:47:15.066Z,4.60
2023-05-10T05:50:17.427Z,4.18
2023-05-10T05:53:19.696Z,3.80
2023-05-10T05:56:25.414Z,4.25
2023-05-10T05:59:28.219Z,3.03
2023-05-10T06:02:30.702Z,3.47
2023-05-10T06:05:33.394Z,2.88
2023-05-10T06:08:35.746Z,4.18
2023-05-10T06:11:38.311Z,3.35
2023-05-10T06:14:40.583Z,4.22
2023-05-10T06:17:44.421Z,4.17
2023-05-10T06:20:46.707Z,3.35
2023-05-10T06:23:49.357Z,4.28
2023-05-10T06:26:52.183Z,3.33
2023-05-10T06:30:02.121Z,2.63
2023-05-10T06:33:12.091Z,3.50
2023-05-10T06:36:14.472Z,3.80
2023-05-10T06:39:17.102Z,3.33
2023-05-10T06:42:19.383Z,3.20
2023-05-10T06:45:22.956Z,2.78
2023-05-10T06:48:25.195Z,3.13
2023-05-10T06:51:27.714Z,4.10
2023-05-10T06:54:30.063Z,4.25
2023-05-10T06:57:33.297Z,4.40
2023-05-10T07:00:35.772Z,3.08
2023-05-10T07:03:38.102Z,2.40
2023-05-10T07:06:40.586Z,4.55
2023-05-10T07:09:45.353Z,2.28
2023-05-10T07:12:47.937Z,3.55
2023-05-10T07:15:53.218Z,2.75
2023-05-10T07:18:55.636Z,3.07
2023-05-10T07:21:58.080Z,3.47
2023-05-10T07:25:00.936Z,3.55
2023-05-10T07:28:03.219Z,3.80
2023-05-10T07:31:05.546Z,2.60
2023-05-10T07:34:07.904Z,4.00
2023-05-10T07:37:10.264Z,3.47
2023-05-10T07:40:12.693Z,2.80
2023-05-10T07:43:17.963Z,3.25
2023-05-10T07:46:20.809Z,3.30
2023-05-10T07:49:25.237Z,3.77
2023-05-10T07:52:27.514Z,3.35
2023-05-10T07:55:29.795Z,4.13
2023-05-10T07:58:32.666Z,3.75
2023-05-10T08:01:35.970Z,1.88
2023-05-10T08:04:38.400Z,3.20
2023-05-10T08:07:41.384Z,3.25
2023-05-10T08:10:43.871Z,3.53
2023-05-10T08:13:46.761Z,3.88
2023-05-10T08:16:49.101Z,4.45
2023-05-10T08:19:51.419Z,3.07
2023-05-10T08:22:59.245Z,3.50
2023-05-10T08:26:01.726Z,3.10
2023-05-10T08:29:04.097Z,4.32
2023-05-10T08:32:06.464Z,3.33
2023-05-10T08:35:08.799Z,2.83
2023-05-10T08:38:11.237Z,4.25
2023-05-10T08:41:14.524Z,3.58
2023-05-10T08:44:17.726Z,3.35
2023-05-10T08:47:23.256Z,3.78
2023-05-10T08:50:26.589Z,3.77
2023-05-10T08:53:36.456Z,3.47
2023-05-10T08:56:38.794Z,3.28
2023-05-10T08:59:41.177Z,3.42
2023-05-10T09:02:45.298Z,2.53
2023-05-10T09:05:48.038Z,2.47
2023-05-10T09:08:51.241Z,3.15
2023-05-10T09:11:54.896Z,3.38
2023-05-10T09:15:02.944Z,3.40
2023-05-10T09:18:06.176Z,3.30
2023-05-10T09:21:09.453Z,3.93
2023-05-10T09:24:13.033Z,2.63
2023-05-10T09:27:15.401Z,4.07
2023-05-10T09:30:29.178Z,3.38
2023-05-10T09:33:45.627Z,3.20
2023-05-10T09:36:55.832Z,2.90
2023-05-10T09:39:58.122Z,2.72
2023-05-10T09:43:11.893Z,3.22
2023-05-10T09:46:14.907Z,3.13
2023-05-10T09:49:17.341Z,3.88
2023-05-10T09:52:19.679Z,2.70
2023-05-10T09:55:24.647Z,2.80
2023-05-10T09:58:27.256Z,2.85
2023-05-10T10:01:30.637Z,2.60
2023-05-10T10:04:33.862Z,2.08
2023-05-10T10:07:36.912Z,2.30
2023-05-10T10:10:42.568Z,2.50
2023-05-10T10:13:45.216Z,2.65
2023-05-10T10:16:59.859Z,2.70
2023-05-10T10:20:12.318Z,2.80
2023-05-10T10:23:17.365Z,2.07
2023-05-10T10:26:20.965Z,2.05
2023-05-10T10:29:37.935Z,2.22
2023-05-10T10:33:20.212Z,2.53
2023-05-10T10:36:29.612Z,2.20
2023-05-10T10:39:32.299Z,1.87
2023-05-10T10:42:52.657Z,1.95
2023-05-10T10:46:18.437Z,1.92
2023-05-10T10:49:22.328Z,2.00
2023-05-10T10:52:34.058Z,2.53
2023-05-10T10:55:49.464Z,1.90
2023-05-10T10:58:53.573Z,2.00
2023-05-10T11:01:55.810Z,1.63
2023-05-10T11:04:58.068Z,1.80
2023-05-10T11:08:01.792Z,1.50
2023-05-10T11:11:09.203Z,1.70
2023-05-10T11:14:11.521Z,2.10
2023-05-10T11:17:28.124Z,1.48
2023-05-10T11:20:40.129Z,2.40
2023-05-10T11:23:59.137Z,1.40
2023-05-10T11:27:01.996Z,1.60
2023-05-10T11:30:07.650Z,2.20
2023-05-10T11:33:10.988Z,2.00
2023-05-10T11:36:27.572Z,1.88
2023-05-10T11:39:31.593Z,1.60
2023-05-10T11:42:34.632Z,2.60
2023-05-10T11:45:37.005Z,2.08
2023-05-10T11:48:43.960Z,2.83
2023-05-10T11:51:46.893Z,1.50
2023-05-10T11:54:54.462Z,1.70
2023-05-10T11:58:02.225Z,2.10
2023-05-10T12:01:06.714Z,1.67
2023-05-10T12:04:09.240Z,1.50
2023-05-10T12:07:11.741Z,1.70
2023-05-10T12:10:20.758Z,1.80
2023-05-10T12:13:26.269Z,2.00
2023-05-10T12:16:30.388Z,1.52
2023-05-10T12:19:40.233Z,2.00
2023-05-10T12:22:50.477Z,1.60
2023-05-10T12:25:55.005Z,1.75
2023-05-10T12:29:18.124Z,1.50
2023-05-10T12:32:20.531Z,1.70
2023-05-10T12:35:24.997Z,2.10
2023-05-10T12:38:34.176Z,2.38
2023-05-10T12:41:36.846Z,1.30
2023-05-10T12:44:47.503Z,1.13
2023-05-10T12:47:49.935Z,1.48
2023-05-10T12:50:52.253Z,1.23
2023-05-10T12:57:42.262Z,1.60
2023-05-10T13:00:44.952Z,1.57
2023-05-10T13:03:47.568Z,1.38
2023-05-10T13:06:49.919Z,1.77
2023-05-10T13:09:52.221Z,1.70
2023-05-10T13:12:54.458Z,2.05
2023-05-10T13:15:56.734Z,1.47
2023-05-10T13:18:59.668Z,2.47
2023-05-10T13:22:02.247Z,1.20
2023-05-10T13:25:04.904Z,1.63
2023-05-10T13:28:07.317Z,1.52
2023-05-10T13:31:09.906Z,1.93
2023-05-10T13:34:12.599Z,1.10
2023-05-10T13:37:15.317Z,1.65
2023-05-10T13:40:17.922Z,1.40
2023-05-10T13:43:33.089Z,1.25
2023-05-10T13:46:39.887Z,1.17
2023-05-10T13:49:42.368Z,1.75
2023-05-10T13:52:45.086Z,1.13
2023-05-10T13:55:48.286Z,1.30
2023-05-10T13:58:50.525Z,1.20
2023-05-10T14:01:53.210Z,1.77
2023-05-10T14:04:55.579Z,0.95
2023-05-10T14:07:58.202Z,1.30
2023-05-10T14:11:00.626Z,1.30
2023-05-10T14:14:03.589Z,1.30
2023-05-10T14:17:06.472Z,1.67
2023-05-10T14:20:09.587Z,1.50
2023-05-10T14:23:12.389Z,1.20
2023-05-10T14:26:15.705Z,0.95
2023-05-10T14:29:18.560Z,1.35
2023-05-10T14:32:21.051Z,1.17
2023-05-10T14:35:23.522Z,1.48
2023-05-10T14:38:26.012Z,1.38
2023-05-10T14:41:28.783Z,1.95
2023-05-10T14:44:31.692Z,1.13
2023-05-10T14:47:34.511Z,1.43
2023-05-10T14:50:37.526Z,1.10
2023-05-10T14:53:40.048Z,1.40
2023-05-10T14:56:42.844Z,1.10
2023-05-10T14:59:45.179Z,1.58
2023-05-10T15:02:49.725Z,0.90
2023-05-10T15:05:54.234Z,1.00
2023-05-10T15:08:56.701Z,0.88
2023-05-10T15:11:59.060Z,1.02
2023-05-10T15:15:01.355Z,1.00
2023-05-10T15:18:03.740Z,0.87
2023-05-10T15:21:06.056Z,0.80
2023-05-10T15:24:08.992Z,0.95
2023-05-10T15:27:11.221Z,1.10
2023-05-10T15:30:13.720Z,1.00
2023-05-10T15:33:16.096Z,0.97
2023-05-10T15:36:19.063Z,0.85
2023-05-10T15:39:21.342Z,1.27
2023-05-10T15:42:23.716Z,1.00
2023-05-10T15:45:26.102Z,1.10
2023-05-10T15:48:28.460Z,1.17
2023-05-10T15:51:30.827Z,1.17
2023-05-10T15:54:33.104Z,1.25
2023-05-10T15:57:36.747Z,1.40
2023-05-10T16:00:39.221Z,0.98
2023-05-10T16:03:41.775Z,1.50
2023-05-10T16:06:44.260Z,1.30
2023-05-10T16:09:46.692Z,1.40
2023-05-10T16:12:49.090Z,1.00
2023-05-10T16:15:51.425Z,1.48
2023-05-10T16:18:54.019Z,1.33
2023-05-10T16:21:56.519Z,1.00
2023-05-10T16:24:59.231Z,1.00
2023-05-10T16:28:01.766Z,1.38
2023-05-10T16:31:04.098Z,1.10
2023-05-10T16:34:06.330Z,1.00
2023-05-10T16:37:08.594Z,1.30
2023-05-10T16:40:11.317Z,1.50
2023-05-10T16:43:13.586Z,1.10
2023-05-10T16:46:16.309Z,0.98
2023-05-10T16:49:18.581Z,1.10
2023-05-10T16:52:20.998Z,1.65
2023-05-10T16:55:25.523Z,1.52
2023-05-10T16:58:28.664Z,1.60
2023-05-10T17:01:30.877Z,1.00
2023-05-10T17:04:33.144Z,1.50
2023-05-10T17:07:35.405Z,1.40
2023-05-10T17:10:41.002Z,1.70
2023-05-10T17:13:43.286Z,1.38
2023-05-10T17:16:45.677Z,1.73
2023-05-10T17:19:47.981Z,2.00
2023-05-10T17:22:50.440Z,1.75
2023-05-10T17:25:53.727Z,1.73
2023-05-10T17:28:56.135Z,1.75
2023-05-10T17:31:59.167Z,1.60
2023-05-10T17:35:03.787Z,1.80
2023-05-10T17:38:06.222Z,1.75
2023-05-10T17:41:08.495Z,1.70
2023-05-10T17:44:10.748Z,1.80
2023-05-10T17:47:13.049Z,2.10
2023-05-10T17:50:15.773Z,1.80
2023-05-10T17:53:18.400Z,1.80
2023-05-10T17:56:22.359Z,1.95
2023-05-10T17:59:24.688Z,2.00
2023-05-10T18:02:27.225Z,1.67
2023-05-10T18:05:29.862Z,1.80
2023-05-10T18:08:33.221Z,1.80
2023-05-10T18:11:36.303Z,1.90
2023-05-10T18:14:41.673Z,1.80
2023-05-10T18:17:44.253Z,1.92
2023-05-10T18:20:46.911Z,1.70
2023-05-10T18:23:49.181Z,2.10
2023-05-10T18:26:51.562Z,1.90
2023-05-10T18:29:54.012Z,1.80
2023-05-10T18:32:57.552Z,1.80
2023-05-10T18:36:00.925Z,1.77
2023-05-10T18:39:03.425Z,1.77
2023-05-10T18:42:06.189Z,1.80
2023-05-10T18:45:08.971Z,1.90
2023-05-10T18:48:11.401Z,2.28
2023-05-10T18:51:14.884Z,2.20
2023-05-10T18:54:17.358Z,2.40
2023-05-10T18:57:21.225Z,2.05
2023-05-10T19:00:24.057Z,2.00
2023-05-10T19:03:26.934Z,2.22
2023-05-10T19:06:29.311Z,2.30
2023-05-10T19:09:32.278Z,2.10
2023-05-10T19:12:34.985Z,1.90
2023-05-10T19:15:37.416Z,2.13
2023-05-10T19:18:40.134Z,2.17
2023-05-10T19:21:42.511Z,1.83
2023-05-10T19:24:46.321Z,2.05
2023-05-10T19:27:48.968Z,2.20
2023-05-10T19:30:51.293Z,2.03
2023-05-10T19:33:54.004Z,1.90
2023-05-10T19:36:58.854Z,2.20
2023-05-10T19:40:01.335Z,2.30
2023-05-10T19:43:04.273Z,2.58
2023-05-10T19:46:06.810Z,2.10
2023-05-10T19:49:09.196Z,2.10
2023-05-10T19:52:12.370Z,1.97
2023-05-10T19:55:25.187Z,2.30
2023-05-10T19:58:28.934Z,4.05
2023-05-10T20:01:32.968Z,2.78
2023-05-10T20:04:35.471Z,2.60
2023-05-10T20:07:37.681Z,2.20
2023-05-10T20:10:40.068Z,2.53
2023-05-10T20:13:42.371Z,2.67
2023-05-10T20:16:44.763Z,2.60
2023-05-10T20:19:47.272Z,2.55
2023-05-10T20:22:50.175Z,2.80
2023-05-10T20:25:54.987Z,2.00
2023-05-10T20:28:57.542Z,2.10
2023-05-10T20:32:00.020Z,2.08
2023-05-10T20:35:02.818Z,1.98
2023-05-10T20:38:05.844Z,2.20
2023-05-10T20:41:08.197Z,2.20
2023-05-10T20:44:10.743Z,2.50
2023-05-10T20:47:14.974Z,2.10
2023-05-10T20:50:17.764Z,2.20
2023-05-10T20:53:20.347Z,2.50
2023-05-10T20:56:23.135Z,2.50
2023-05-10T20:59:25.508Z,2.28
2023-05-10T21:02:27.845Z,2.30
2023-05-10T21:05:30.798Z,2.47
2023-05-10T21:08:33.274Z,2.60
2023-05-10T21:11:36.212Z,2.35
2023-05-10T21:14:38.558Z,2.40
2023-05-10T21:17:40.920Z,2.40
2023-05-10T21:20:43.237Z,2.55
2023-05-10T21:23:48.765Z,2.50
2023-05-10T21:26:51.116Z,2.25
2023-05-10T21:29:53.656Z,2.47
2023-05-10T21:32:59.799Z,2.05
2023-05-10T21:36:02.336Z,4.20
2023-05-10T21:39:04.580Z,6.47
2023-05-10T21:42:07.012Z,15.27
2023-05-10T21:45:09.551Z,8.50
2023-05-10T21:48:12.336Z,7.85
2023-05-10T21:51:14.858Z,10.52
2023-05-10T21:54:17.125Z,6.57
2023-05-10T21:57:19.759Z,5.55
2023-05-10T22:00:22.029Z,4.40
2023-05-10T22:03:24.465Z,3.72
2023-05-10T22:06:26.762Z,3.60
2023-05-10T22:09:29.756Z,2.07
2023-05-10T22:12:32.013Z,3.45
2023-05-10T22:15:36.332Z,2.80
2023-05-10T22:18:39.018Z,2.10
2023-05-10T22:21:41.469Z,2.00
2023-05-10T22:24:45.568Z,2.20
2023-05-10T22:27:47.947Z,2.60
2023-05-10T22:30:50.266Z,2.40
2023-05-10T22:33:52.563Z,2.40
2023-05-10T22:36:54.855Z,2.70
2023-05-10T22:39:57.185Z,2.43
2023-05-10T22:42:59.471Z,2.22
2023-05-10T22:46:04.843Z,2.45
2023-05-10T22:49:07.182Z,2.53
2023-05-10T22:52:09.795Z,2.50
2023-05-10T22:55:12.139Z,2.53
2023-05-10T22:58:14.467Z,2.60
2023-05-10T23:01:17.191Z,2.42
2023-05-10T23:04:19.849Z,2.70
2023-05-10T23:07:22.729Z,2.38
2023-05-10T23:10:25.139Z,2.40
2023-05-10T23:13:27.664Z,2.33
2023-05-10T23:16:30.655Z,2.15
2023-05-10T23:19:32.997Z,1.88
2023-05-10T23:22:35.241Z,1.88
2023-05-10T23:25:38.009Z,1.87
2023-05-10T23:28:40.326Z,2.15
2023-05-10T23:31:45.740Z,1.85
2023-05-10T23:34:48.024Z,1.88
2023-05-10T23:37:50.408Z,1.95
2023-05-10T23:40:52.693Z,1.70
2023-05-10T23:43:54.921Z,1.95
2023-05-10T23:46:57.192Z,1.70
2023-05-10T23:49:59.567Z,1.45
2023-05-10T23:53:04.346Z,1.80
2023-05-10T23:56:07.908Z,1.83
2023-05-10T23:59:10.417Z,1.70
